Time;durP1;ratioP1;P1;durP2;ratioP2;P2;SDS_P1;SDS_P2;PMS_P1;PMS_P2;Temp;Humidity;BMP_temperature;BMP_pressure;BME280_temperature;BME280_humidity;BME280_pressure;Samples;Min_cycle;Max_cycle;Signal;HPM_P1;HPM_P2
2022/10/02 07:42:25;;;;;;;;;;;;;;;20.07;80.05;96975.84;623817;224;42744;-68
2022/10/02 07:44:55;;;;;;;;;;;;;;;20.06;80.04;96972.38;623880;227;63083;-69
2022/10/02 07:47:30;;;;;;;;;;;;;;;20.05;80.04;96986.79;623804;227;64827;-69
2022/10/02 07:50:04;;;;;;;;;;;;;;;20.07;80.05;97005.98;623661;225;64940;-69
2022/10/02 07:52:36;;;;;;;;;;;;;;;20.08;80.07;97028.94;622955;226;65323;-68
2022/10/02 07:55:18;;;;;;;;;;;;;;;20.09;80.10;97025.20;623554;227;64548;-68
2022/10/02 07:57:48;;;;;;;;;;;;;;;20.10;80.16;97013.45;623899;227;66889;-69
2022/10/02 08:00:17;;;;;;;;;;;;;;;20.10;80.13;97028.66;623832;226;65164;-68
2022/10/02 08:02:52;;;;;;;;;;;;;;;20.09;80.03;97038.53;623905;227;67404;-68
2022/10/02 08:05:22;;;;;;;;;;;;;;;20.10;80.05;97029.45;623964;227;66760;-68
2022/10/02 08:07:51;;;;;;;;;;;;;;;20.11;80.00;97041.75;623854;227;65164;-68
2022/10/02 08:10:20;;;;;;;;;;;;;;;20.11;80.02;97047.09;623879;227;64893;-68
2022/10/02 08:12:49;;;;;;;;;;;;;;;20.12;80.03;97037.20;623818;227;67408;-68
2022/10/02 08:15:19;;;;;;;;;;;;;;;20.12;80.06;97030.00;623660;226;63013;-68
2022/10/02 08:17:53;;;;;;;;;;;;;;;20.12;80.05;97022.00;623944;227;64819;-68
2022/10/02 08:20:23;;;;;;;;;;;;;;;20.13;80.01;97026.28;623752;226;66923;-69
2022/10/02 08:22:52;;;;;;;;;;;;;;;20.13;80.03;97039.62;623479;226;65300;-69
2022/10/02 08:25:23;;;;;;;;;;;;;;;20.13;79.95;97020.95;623620;226;67321;-69
2022/10/02 08:28:01;;;;;;;;;;;;;;;20.13;80.01;97036.13;623882;227;66942;-70
2022/10/02 08:30:29;;;;;;;;;;;;;;;20.14;79.85;97027.08;623853;226;65033;-69
2022/10/02 08:32:56;;;;;;;;;;;;;;;20.13;79.98;97039.62;623943;227;66698;-69
2022/10/02 08:35:26;;;;;;;;;;;;;;;20.15;79.87;97034.01;623882;227;66859;-69
2022/10/02 08:38:03;;;;;;;;;;;;;;;20.14;79.89;97033.22;623735;226;62907;-69
2022/10/02 08:40:36;;;;;;;;;;;;;;;20.13;79.89;97042.30;623868;227;68003;-68
2022/10/02 08:43:21;;;;;;;;;;;;;;;20.15;79.92;97039.34;623846;227;64841;-68
2022/10/02 08:45:51;;;;;;;;;;;;;;;20.14;79.96;97035.88;623876;227;64874;-68
2022/10/02 08:48:32;;;;;;;;;;;;;;;20.14;79.98;97035.88;619139;225;67130;-68
2022/10/02 08:51:17;;;;;;;;;;;;;;;20.14;79.98;97038.55;623801;226;67030;-68
2022/10/02 08:54:02;;;;;;;;;;;;;;;20.14;79.96;97025.21;623895;227;65126;-68
2022/10/02 08:56:50;;;;;;;;;;;;;;;20.14;80.05;97027.87;623880;227;64423;-69
2022/10/02 08:59:25;;;;;;;;;;;;;;;20.15;80.00;97026.80;623902;227;66873;-68
2022/10/02 09:01:55;;;;;;;;;;;;;;;20.15;80.06;97020.67;623881;227;63617;-68
2022/10/02 09:04:30;;;;;;;;;;;;;;;20.15;79.97;97029.47;623872;227;66668;-65
2022/10/02 09:07:04;;;;;;;;;;;;;;;20.15;79.96;97034.01;623866;227;66657;-66
2022/10/02 09:09:45;;;;;;;;;;;;;;;20.14;79.99;97019.88;623710;225;62941;-66
2022/10/02 09:12:24;;;;;;;;;;;;;;;20.14;80.03;97030.55;623946;227;66632;-66
2022/10/02 09:14:52;;;;;;;;;;;;;;;20.14;80.04;97000.40;623857;227;66841;-66
2022/10/02 09:17:36;;;;;;;;;;;;;;;20.15;80.03;96999.33;623892;227;62915;-66
2022/10/02 09:20:06;;;;;;;;;;;;;;;20.15;80.00;97021.47;623735;226;64440;-66
2022/10/02 09:22:51;;;;;;;;;;;;;;;20.15;79.95;97000.12;623909;227;66631;-66
2022/10/02 09:25:23;;;;;;;;;;;;;;;20.15;79.99;96997.45;623870;227;62834;-66
2022/10/02 09:28:09;;;;;;;;;;;;;;;20.15;80.04;96999.33;623779;226;67363;-66
2022/10/02 09:30:47;;;;;;;;;;;;;;;20.16;80.05;96990.23;623886;227;67992;-66
2022/10/02 09:33:32;;;;;;;;;;;;;;;20.16;80.12;96993.73;623674;226;63157;-66
2022/10/02 09:36:05;;;;;;;;;;;;;;;20.15;80.00;96986.78;623783;227;64830;-66
2022/10/02 09:38:34;;;;;;;;;;;;;;;20.17;79.94;97010.54;623845;227;65017;-65
2022/10/02 09:41:15;;;;;;;;;;;;;;;20.15;79.90;97045.48;623663;226;65204;-66
2022/10/02 09:43:50;;;;;;;;;;;;;;;20.15;79.92;97016.13;623062;226;67364;-66
2022/10/02 09:46:20;;;;;;;;;;;;;;;20.15;79.97;97029.47;623835;227;65571;-66
2022/10/02 09:49:07;;;;;;;;;;;;;;;20.16;80.04;97016.92;623715;227;65049;-66
2022/10/02 09:51:47;;;;;;;;;;;;;;;20.17;80.09;97034.55;623775;226;64528;-66
2022/10/02 09:54:20;;;;;;;;;;;;;;;20.16;80.02;97039.09;623591;226;64710;-66
2022/10/02 09:57:02;;;;;;;;;;;;;;;20.17;80.04;97034.55;623762;227;65296;-66
2022/10/02 09:59:37;;;;;;;;;;;;;;;20.16;80.11;97028.42;623775;227;67227;-65
2022/10/02 10:02:06;;;;;;;;;;;;;;;20.16;80.05;97052.44;623387;227;64855;-67
2022/10/02 10:04:41;;;;;;;;;;;;;;;20.16;80.00;97043.60;623815;227;65113;-66
2022/10/02 10:07:18;;;;;;;;;;;;;;;20.16;80.06;97055.11;623650;226;67032;-66
2022/10/02 10:09:59;;;;;;;;;;;;;;;20.16;80.14;97047.09;623769;227;66744;-66
2022/10/02 10:12:29;;;;;;;;;;;;;;;20.16;80.24;97028.42;623551;226;65186;-66
2022/10/02 10:15:04;;;;;;;;;;;;;;;20.17;80.27;97039.89;619023;227;66970;-66
2022/10/02 10:17:46;;;;;;;;;;;;;;;20.16;80.20;97033.76;623794;227;67031;-66
2022/10/02 10:20:35;;;;;;;;;;;;;;;20.16;80.18;97028.42;623573;226;62684;-66
2022/10/02 10:23:02;;;;;;;;;;;;;;;20.16;80.13;97039.09;623669;226;67211;-66
2022/10/02 10:25:40;;;;;;;;;;;;;;;20.17;80.21;97029.22;623705;226;67009;-66
2022/10/02 10:28:10;;;;;;;;;;;;;;;20.17;80.27;97034.55;623738;225;65502;-65
2022/10/02 10:30:39;;;;;;;;;;;;;;;20.17;80.28;97035.35;623722;227;65606;-65
2022/10/02 10:33:22;;;;;;;;;;;;;;;20.17;80.26;97038.02;623763;227;64795;-65
2022/10/02 10:35:57;;;;;;;;;;;;;;;20.17;80.25;97056.69;623755;227;65303;-66
2022/10/02 10:38:32;;;;;;;;;;;;;;;20.17;80.10;97040.69;623736;227;67118;-66
2022/10/02 10:41:01;;;;;;;;;;;;;;;20.17;80.26;97038.02;623840;227;64453;-66
2022/10/02 10:43:31;;;;;;;;;;;;;;;20.18;80.37;97044.95;623717;226;62567;-66
2022/10/02 10:46:02;;;;;;;;;;;;;;;20.17;80.29;97040.69;619112;227;67360;-66
2022/10/02 10:48:31;;;;;;;;;;;;;;;20.18;80.45;97026.27;623747;226;67187;-66
2022/10/02 10:51:13;;;;;;;;;;;;;;;20.17;80.36;97035.35;623838;226;64857;-66
2022/10/02 10:53:43;;;;;;;;;;;;;;;20.17;80.39;97040.69;623466;227;67364;-66
2022/10/02 10:56:12;;;;;;;;;;;;;;;20.19;80.35;97051.11;623593;227;66981;-66
2022/10/02 10:58:41;;;;;;;;;;;;;;;20.18;80.45;97047.61;623857;227;62749;-66
2022/10/02 11:01:12;;;;;;;;;;;;;;;20.19;80.45;97037.77;623732;226;64825;-66
2022/10/02 11:03:41;;;;;;;;;;;;;;;20.20;80.47;97054.57;623817;226;68274;-66
2022/10/02 11:06:13;;;;;;;;;;;;;;;20.20;80.50;97057.23;623894;225;64922;-66
2022/10/02 11:08:45;;;;;;;;;;;;;;;20.19;80.54;97051.11;624131;226;66867;-66
2022/10/02 11:11:21;;;;;;;;;;;;;;;20.19;80.58;97053.77;623934;227;64808;-66
2022/10/02 11:13:50;;;;;;;;;;;;;;;20.19;80.56;97048.44;623856;227;64937;-66
2022/10/02 11:16:36;;;;;;;;;;;;;;;20.20;80.62;97047.36;623849;227;65056;-66
2022/10/02 11:19:21;;;;;;;;;;;;;;;20.20;80.63;97033.23;623863;227;66838;-66
2022/10/02 11:21:57;;;;;;;;;;;;;;;20.20;80.67;97034.02;623875;227;65118;-66
2022/10/02 11:24:41;;;;;;;;;;;;;;;20.20;80.58;97031.35;623864;227;67171;-66
2022/10/02 11:27:23;;;;;;;;;;;;;;;20.18;80.60;97039.61;623867;227;67075;-66
2022/10/02 11:29:58;;;;;;;;;;;;;;;20.19;80.55;97037.77;623928;227;65225;-66
2022/10/02 11:32:44;;;;;;;;;;;;;;;20.20;80.69;97022.55;623878;226;67080;-65
2022/10/02 11:35:19;;;;;;;;;;;;;;;20.20;80.53;97038.56;623889;227;65672;-65
2022/10/02 11:37:51;;;;;;;;;;;;;;;20.20;80.57;97034.02;623889;227;65214;-65
2022/10/02 11:40:35;;;;;;;;;;;;;;;20.20;80.65;97025.22;623872;227;67076;-65
2022/10/02 11:43:24;;;;;;;;;;;;;;;20.19;80.64;97040.44;623219;226;67321;-65
2022/10/02 11:46:10;;;;;;;;;;;;;;;20.20;80.64;97019.88;623170;227;65087;-65
2022/10/02 11:48:40;;;;;;;;;;;;;;;20.20;80.70;97019.88;623159;227;67121;-65
2022/10/02 11:51:25;;;;;;;;;;;;;;;20.20;80.71;97014.55;623181;227;67009;-65
2022/10/02 11:54:06;;;;;;;;;;;;;;;20.20;80.66;97023.34;615753;230;62960;-66
2022/10/02 11:56:59;;;;;;;;;;;;;;;20.20;80.67;97023.34;621385;227;64893;-67
2022/10/02 11:59:27;;;;;;;;;;;;;;;20.20;80.74;97022.55;615409;230;64688;-67
2022/10/02 12:02:03;;;;;;;;;;;;;;;20.20;80.72;97027.89;621171;227;65186;-67
2022/10/02 12:04:35;;;;;;;;;;;;;;;20.20;80.75;97015.34;623167;227;68049;-66
2022/10/02 12:07:21;;;;;;;;;;;;;;;20.20;80.67;97025.22;623024;226;67397;-66
2022/10/02 12:10:06;;;;;;;;;;;;;;;20.20;80.67;97033.23;623128;227;62906;-65
2022/10/02 12:12:38;;;;;;;;;;;;;;;20.21;80.54;97042.82;623086;227;67920;-65
2022/10/02 12:15:18;;;;;;;;;;;;;;;20.21;80.60;97048.16;623194;227;67060;-66
2022/10/02 12:17:53;;;;;;;;;;;;;;;20.20;80.59;97060.70;623132;227;62934;-66
2022/10/02 12:29:13;;;;;;;;;;;;;;;20.21;80.75;97074.84;619694;227;66801;-65
2022/10/02 12:31:54;;;;;;;;;;;;;;;20.21;80.77;97078.30;623044;226;67219;-67
2022/10/02 12:34:39;;;;;;;;;;;;;;;20.21;80.86;97066.84;623074;226;65274;-66
2022/10/02 12:37:08;;;;;;;;;;;;;;;20.21;80.90;97064.17;623139;227;67339;-66
2022/10/02 12:39:55;;;;;;;;;;;;;;;20.21;80.89;97077.51;623167;227;67848;-66
2022/10/02 12:42:30;;;;;;;;;;;;;;;20.21;80.89;97066.84;623298;226;62915;-66
2022/10/02 12:45:06;;;;;;;;;;;;;;;20.21;80.91;97061.50;622621;227;67038;-66
2022/10/02 12:47:34;;;;;;;;;;;;;;;20.21;80.90;97070.30;623699;226;66956;-66
2022/10/02 12:50:07;;;;;;;;;;;;;;;20.21;80.89;97072.17;623710;226;65170;-66
2022/10/02 12:52:38;;;;;;;;;;;;;;;20.22;80.88;97068.45;623635;227;67066;-66
2022/10/02 12:55:19;;;;;;;;;;;;;;;20.23;80.88;97056.70;623909;227;66912;-66
2022/10/02 12:57:57;;;;;;;;;;;;;;;20.22;80.10;97065.79;623884;227;62887;-66
2022/10/02 13:00:30;;;;;;;;;;;;;;;20.22;79.21;97074.59;623834;227;67188;-68
2022/10/02 13:03:16;;;;;;;;;;;;;;;20.24;80.29;97060.97;623899;227;66903;-68
2022/10/02 13:05:50;;;;;;;;;;;;;;;20.24;80.68;97071.64;623865;227;63197;-68
2022/10/02 13:08:25;;;;;;;;;;;;;;;20.24;80.55;97082.31;623882;227;64830;-68
2022/10/02 13:10:58;;;;;;;;;;;;;;;20.23;80.44;97070.84;623743;226;64919;-68
2022/10/02 13:13:30;;;;;;;;;;;;;;;20.23;79.73;97076.19;623848;226;65042;-66
2022/10/02 13:16:01;;;;;;;;;;;;;;;20.23;79.24;97068.17;623888;226;64832;-66
2022/10/02 13:18:47;;;;;;;;;;;;;;;20.23;78.48;97067.38;623721;226;66489;-65
2022/10/02 13:21:34;;;;;;;;;;;;;;;20.24;79.58;97063.64;623857;227;65134;-66
2022/10/02 13:24:09;;;;;;;;;;;;;;;20.24;79.31;97068.97;623875;227;64763;-66
2022/10/02 13:26:41;;;;;;;;;;;;;;;20.24;77.30;97060.97;623696;226;66919;-66
2022/10/02 13:29:16;;;;;;;;;;;;;;;20.26;79.29;97066.84;623743;226;65199;-66
2022/10/02 13:31:48;;;;;;;;;;;;;;;20.25;79.63;97067.92;623835;226;64598;-65
2022/10/02 13:34:19;;;;;;;;;;;;;;;20.24;78.38;97064.43;619510;227;64641;-67
2022/10/02 13:36:49;;;;;;;;;;;;;;;20.26;77.08;97066.84;623733;226;65059;-66
2022/10/02 13:39:18;;;;;;;;;;;;;;;20.26;79.71;97062.30;623890;227;66873;-66
2022/10/02 13:41:53;;;;;;;;;;;;;;;20.27;80.23;97076.45;623872;226;66902;-66
2022/10/02 13:44:35;;;;;;;;;;;;;;;20.25;80.08;97070.59;625043;226;64848;-66
2022/10/02 13:47:04;;;;;;;;;;;;;;;20.25;80.21;97073.27;625259;227;67083;-66
2022/10/02 13:49:36;;;;;;;;;;;;;;;20.24;77.39;97076.98;625077;226;66905;-66
2022/10/02 13:52:05;;;;;;;;;;;;;;;20.26;77.83;97080.19;625021;226;64857;-66
2022/10/02 13:54:53;;;;;;;;;;;;;;;20.26;79.43;97061.52;624922;226;67251;-66
2022/10/02 13:57:31;;;;;;;;;;;;;;;20.26;80.09;97054.30;625161;227;66914;-66
2022/10/02 14:00:13;;;;;;;;;;;;;;;20.26;79.97;97054.30;625201;227;65305;-66
2022/10/02 14:02:48;;;;;;;;;;;;;;;20.25;79.75;97046.58;625196;227;67107;-66
2022/10/02 14:05:26;;;;;;;;;;;;;;;20.25;79.43;97058.05;625171;225;67038;-65
2022/10/02 14:07:55;;;;;;;;;;;;;;;20.25;80.01;97059.92;625063;226;66135;-65
2022/10/02 14:10:43;;;;;;;;;;;;;;;20.25;79.95;97047.38;625227;225;67150;-67
2022/10/02 14:13:15;;;;;;;;;;;;;;;20.25;79.88;97054.58;625155;227;66710;-67
2022/10/02 14:15:56;;;;;;;;;;;;;;;20.25;80.16;97059.92;624929;226;65187;-68
2022/10/02 14:18:31;;;;;;;;;;;;;;;20.25;80.03;97065.26;625173;227;64820;-66
2022/10/02 14:21:08;;;;;;;;;;;;;;;20.25;80.10;97062.59;625055;226;64794;-67
2022/10/02 14:23:50;;;;;;;;;;;;;;;20.25;80.24;97065.26;625133;226;65207;-67
2022/10/02 14:26:21;;;;;;;;;;;;;;;20.25;80.35;97070.59;625278;227;67056;-66
2022/10/02 14:28:53;;;;;;;;;;;;;;;20.25;80.42;97065.26;625109;226;66894;-66
2022/10/02 14:31:42;;;;;;;;;;;;;;;20.25;80.46;97057.25;624653;227;65204;-68
2022/10/02 14:34:27;;;;;;;;;;;;;;;20.24;80.48;97053.76;625002;226;66916;-68
2022/10/02 14:37:15;;;;;;;;;;;;;;;20.25;80.46;97067.92;625295;227;66658;-68
2022/10/02 14:39:46;;;;;;;;;;;;;;;20.24;80.55;97051.09;625249;226;65165;-69
2022/10/02 14:42:36;;;;;;;;;;;;;;;20.24;80.57;97053.76;624800;227;64968;-68
2022/10/02 14:45:07;;;;;;;;;;;;;;;20.24;80.64;97051.09;623740;227;47898;-70
2022/10/02 14:47:42;;;;;;;;;;;;;;;20.24;80.68;97044.95;623916;227;65194;-69
2022/10/02 14:50:29;;;;;;;;;;;;;;;20.24;80.67;97040.41;623553;226;67377;-69
2022/10/02 14:53:01;;;;;;;;;;;;;;;20.24;80.70;97043.08;623833;227;67054;-69
2022/10/02 14:55:43;;;;;;;;;;;;;;;20.25;80.64;97038.57;623860;226;63289;-70
2022/10/02 14:58:32;;;;;;;;;;;;;;;20.24;80.47;97032.41;623963;226;48023;-68
2022/10/02 15:01:03;;;;;;;;;;;;;;;20.25;80.28;97035.91;616282;230;67661;-71
2022/10/02 15:03:50;;;;;;;;;;;;;;;20.25;80.42;97041.23;621675;227;64944;-71
2022/10/02 15:06:33;;;;;;;;;;;;;;;20.24;80.40;97039.62;623944;227;64291;-71
2022/10/02 15:09:05;;;;;;;;;;;;;;;20.24;80.46;97037.75;622728;227;46433;-71
2022/10/02 15:11:37;;;;;;;;;;;;;;;20.24;80.44;97040.41;622955;227;62921;-71
2022/10/02 15:14:06;;;;;;;;;;;;;;;20.25;80.42;97043.91;623931;227;65384;-71
2022/10/02 15:19:44;;;;;;;;;;;;;;;20.24;80.40;97039.62;623918;227;65130;-70
2022/10/02 15:22:19;;;;;;;;;;;;;;;20.24;80.33;97047.62;623768;226;48021;-70
2022/10/02 15:24:50;;;;;;;;;;;;;;;20.24;80.35;97039.62;623925;226;67189;-70
2022/10/02 15:27:21;;;;;;;;;;;;;;;20.24;80.35;97037.75;623714;226;45899;-70
2022/10/02 15:30:06;;;;;;;;;;;;;;;20.24;80.36;97039.62;623924;227;68103;-70
2022/10/02 15:32:45;;;;;;;;;;;;;;;20.23;80.35;97036.16;623886;227;66893;-70
2022/10/02 15:35:30;;;;;;;;;;;;;;;20.24;80.34;97040.41;620053;227;65150;-71
2022/10/02 15:38:07;;;;;;;;;;;;;;;20.25;80.29;97043.91;616727;230;67985;-70
2022/10/02 15:40:42;;;;;;;;;;;;;;;20.24;80.57;97040.41;616720;230;64805;-69
2022/10/02 15:43:17;;;;;;;;;;;;;;;20.24;80.64;97034.28;607529;230;62829;-73
2022/10/02 15:46:02;;;;;;;;;;;;;;;20.23;80.45;97025.48;614353;231;65738;-73
2022/10/02 15:48:46;;;;;;;;;;;;;;;20.23;80.46;97022.02;614079;230;64952;-72
2022/10/02 15:51:28;;;;;;;;;;;;;;;20.24;80.37;97034.28;614556;231;65098;-71
2022/10/02 15:54:06;;;;;;;;;;;;;;;20.23;80.21;97030.02;614372;231;67091;-71
2022/10/02 15:56:42;;;;;;;;;;;;;;;20.22;80.08;97023.09;614286;229;67589;-71
2022/10/02 15:59:15;;;;;;;;;;;;;;;20.22;80.04;97031.10;614368;230;65290;-71
2022/10/02 16:02:00;;;;;;;;;;;;;;;20.22;80.02;97028.43;614577;231;64878;-71
2022/10/02 16:04:46;;;;;;;;;;;;;;;20.22;79.97;97025.77;614589;231;66136;-71
2022/10/02 16:07:31;;;;;;;;;;;;;;;20.21;79.95;97024.94;614630;231;65320;-71
2022/10/02 16:10:00;;;;;;;;;;;;;;;20.21;79.94;97034.81;614594;229;68010;-71
2022/10/02 16:12:32;;;;;;;;;;;;;;;20.20;79.95;97027.89;613818;231;67797;-71
2022/10/02 16:15:09;;;;;;;;;;;;;;;20.20;79.98;97028.68;614412;229;45787;-72
2022/10/02 16:17:44;;;;;;;;;;;;;;;20.20;79.94;97033.23;614360;230;65812;-72
2022/10/02 16:20:19;;;;;;;;;;;;;;;20.20;79.91;97038.56;614331;230;66063;-72
2022/10/02 16:22:51;;;;;;;;;;;;;;;20.19;79.96;97029.77;614498;230;65266;-72
2022/10/02 16:25:26;;;;;;;;;;;;;;;20.18;80.00;97036.94;614605;231;66620;-71
2022/10/02 16:27:58;;;;;;;;;;;;;;;20.19;79.98;97037.77;614564;230;64947;-71
2022/10/02 16:30:26;;;;;;;;;;;;;;;20.19;80.01;97032.43;614202;230;62824;-71
2022/10/02 16:33:11;;;;;;;;;;;;;;;20.18;79.99;97026.27;614551;229;68213;-72
2022/10/02 16:35:53;;;;;;;;;;;;;;;20.18;79.99;97020.13;614580;231;67013;-72
2022/10/02 16:38:38;;;;;;;;;;;;;;;20.18;80.12;97025.47;614532;229;63890;-72
2022/10/02 16:41:20;;;;;;;;;;;;;;;20.18;80.02;97026.27;614512;231;67071;-71
2022/10/02 16:43:58;;;;;;;;;;;;;;;20.17;80.09;97030.02;614595;231;64706;-71
2022/10/02 16:46:34;;;;;;;;;;;;;;;20.18;80.06;97030.80;614589;231;62679;-71
2022/10/02 16:49:04;;;;;;;;;;;;;;;20.16;80.14;97033.76;614493;231;69691;-71
2022/10/02 16:51:33;;;;;;;;;;;;;;;20.17;80.08;97034.55;614353;230;66835;-71
2022/10/02 16:54:02;;;;;;;;;;;;;;;20.16;80.20;97032.93;614572;231;62798;-70
2022/10/02 16:56:48;;;;;;;;;;;;;;;20.16;80.13;97038.27;613678;231;67132;-71
2022/10/02 16:59:17;;;;;;;;;;;;;;;20.17;80.16;97042.56;614567;231;64761;-72
2022/10/02 17:01:46;;;;;;;;;;;;;;;20.16;80.09;97036.42;614424;231;63644;-72
2022/10/02 17:04:21;;;;;;;;;;;;;;;20.16;80.17;97031.09;614564;231;67215;-72
2022/10/02 17:06:59;;;;;;;;;;;;;;;20.16;80.12;97032.93;606543;230;64921;-72
2022/10/02 17:09:30;;;;;;;;;;;;;;;20.16;80.12;97038.27;614417;230;45680;-72
2022/10/02 17:12:11;;;;;;;;;;;;;;;20.16;80.17;97040.94;614589;231;64825;-72
2022/10/02 17:14:46;;;;;;;;;;;;;;;20.16;80.14;97039.09;614376;230;64638;-72
2022/10/02 17:17:32;;;;;;;;;;;;;;;20.16;80.30;97032.93;614442;230;64929;-72
2022/10/02 17:20:02;;;;;;;;;;;;;;;20.15;80.21;97044.68;614624;231;64838;-72
2022/10/02 17:22:43;;;;;;;;;;;;;;;20.15;80.23;97045.48;614506;231;68162;-72
2022/10/02 17:25:15;;;;;;;;;;;;;;;20.15;80.24;97052.69;614524;230;63014;-72
2022/10/02 17:27:44;;;;;;;;;;;;;;;20.15;80.51;97050.02;614552;231;64707;-72
2022/10/02 17:30:19;;;;;;;;;;;;;;;20.15;80.51;97053.48;614350;229;67040;-73
2022/10/02 17:32:49;;;;;;;;;;;;;;;20.15;80.70;97053.48;614627;231;64912;-72
2022/10/02 17:35:18;;;;;;;;;;;;;;;20.14;80.69;97057.23;614585;231;67226;-73
2022/10/02 17:37:50;;;;;;;;;;;;;;;20.14;80.79;97051.89;612730;231;66717;-73
2022/10/02 17:40:22;;;;;;;;;;;;;;;20.14;80.59;97051.89;614627;231;65251;-72
2022/10/02 17:43:01;;;;;;;;;;;;;;;20.14;80.60;97046.55;615028;230;63977;-72
2022/10/02 17:45:30;;;;;;;;;;;;;;;20.14;81.00;97043.88;615405;230;65638;-71
2022/10/02 17:48:00;;;;;;;;;;;;;;;20.13;80.90;97044.96;615131;230;63753;-71
2022/10/02 17:50:32;;;;;;;;;;;;;;;20.14;81.23;97040.42;615429;230;66999;-71
2022/10/02 17:59:03;;;;;;;;;;;;;;;20.14;80.98;97043.09;615395;230;67751;-72
2022/10/02 18:01:50;;;;;;;;;;;;;;;20.13;81.25;97041.47;615367;228;65325;-72
2022/10/02 18:04:31;;;;;;;;;;;;;;;20.13;81.12;97044.96;615239;230;63864;-71
2022/10/02 18:07:03;;;;;;;;;;;;;;;20.13;80.88;97052.97;615351;228;67962;-71
2022/10/02 18:09:33;;;;;;;;;;;;;;;20.11;81.14;97039.08;614888;230;65900;-71
2022/10/02 18:12:05;;;;;;;;;;;;;;;20.12;81.49;97054.02;615381;230;65099;-71
2022/10/02 18:14:34;;;;;;;;;;;;;;;20.11;81.07;97047.09;615356;230;67032;-71
2022/10/02 18:17:15;;;;;;;;;;;;;;;20.11;81.12;97049.75;615287;228;67695;-71
2022/10/02 18:19:45;;;;;;;;;;;;;;;20.12;81.13;97042.55;615380;228;62766;-72
2022/10/02 18:22:29;;;;;;;;;;;;;;;20.12;81.58;97048.67;615369;230;67300;-72
2022/10/02 18:25:06;;;;;;;;;;;;;;;20.12;81.28;97045.21;615128;230;66932;-72
2022/10/02 18:27:51;;;;;;;;;;;;;;;20.11;81.36;97041.75;615378;230;63022;-72
2022/10/02 18:30:19;;;;;;;;;;;;;;;20.11;81.66;97035.62;615397;230;64907;-72
2022/10/02 18:32:51;;;;;;;;;;;;;;;20.11;81.74;97031.08;615361;230;64656;-71
2022/10/02 18:35:37;;;;;;;;;;;;;;;20.11;81.67;97033.75;615360;230;62942;-71
2022/10/02 18:38:06;;;;;;;;;;;;;;;20.11;82.09;97031.08;615324;230;67223;-73
2022/10/02 18:40:39;;;;;;;;;;;;;;;20.11;81.92;97024.95;615317;230;67195;-73
2022/10/02 18:43:18;;;;;;;;;;;;;;;20.10;82.08;97024.12;604319;231;62870;-73
2022/10/02 18:45:47;;;;;;;;;;;;;;;20.10;81.70;97026.78;613797;231;67112;-73
2022/10/02 18:48:22;;;;;;;;;;;;;;;20.11;82.11;97024.95;613834;231;67642;-73
2022/10/02 18:51:06;;;;;;;;;;;;;;;20.10;82.05;97029.45;613765;231;65004;-73
2022/10/02 18:53:38;;;;;;;;;;;;;;;20.11;82.23;97036.41;613683;231;64980;-73
2022/10/02 18:56:11;;;;;;;;;;;;;;;20.10;82.34;97032.12;613661;231;66988;-73
2022/10/02 18:58:58;;;;;;;;;;;;;;;20.10;82.21;97021.45;613919;231;63768;-73
2022/10/02 19:01:42;;;;;;;;;;;;;;;20.10;82.03;97017.98;613611;231;66583;-72
2022/10/02 19:04:17;;;;;;;;;;;;;;;20.09;82.43;97019.86;613853;231;64819;-71
2022/10/02 19:06:49;;;;;;;;;;;;;;;20.10;82.03;97020.66;613911;231;66143;-71
2022/10/02 19:09:27;;;;;;;;;;;;;;;20.09;81.59;97019.06;613877;231;67506;-71
2022/10/02 19:11:56;;;;;;;;;;;;;;;20.09;82.13;97017.20;613719;231;66693;-71
2022/10/02 19:14:40;;;;;;;;;;;;;;;20.10;82.53;97015.32;613923;231;65858;-71
2022/10/02 19:17:09;;;;;;;;;;;;;;;20.08;82.08;97023.61;613767;231;64965;-72
2022/10/02 19:19:38;;;;;;;;;;;;;;;20.09;82.14;97017.20;613926;228;67773;-72
2022/10/02 19:22:07;;;;;;;;;;;;;;;20.10;82.50;97020.66;613990;231;62864;-72
2022/10/02 19:24:36;;;;;;;;;;;;;;;20.10;82.35;97024.12;609561;231;67110;-72
2022/10/02 19:27:05;;;;;;;;;;;;;;;20.09;82.75;97033.20;613951;231;64972;-72
2022/10/02 19:29:44;;;;;;;;;;;;;;;20.09;82.80;97035.87;613961;231;62796;-72
2022/10/02 19:32:13;;;;;;;;;;;;;;;20.09;82.69;97030.53;613873;228;67370;-71
2022/10/02 19:34:42;;;;;;;;;;;;;;;20.09;82.60;97032.41;612030;231;43397;-71
2022/10/02 19:37:11;;;;;;;;;;;;;;;20.09;82.72;97027.86;613993;231;62970;-71
2022/10/02 19:39:40;;;;;;;;;;;;;;;20.10;83.11;97039.33;613919;231;66615;-71
2022/10/02 19:42:12;;;;;;;;;;;;;;;20.08;82.55;97036.95;613858;231;66866;-71
2022/10/02 19:44:43;;;;;;;;;;;;;;;20.09;82.73;97038.53;613804;231;66598;-71
2022/10/02 19:47:26;;;;;;;;;;;;;;;20.10;82.44;97031.33;613887;228;65855;-71
2022/10/02 19:49:55;;;;;;;;;;;;;;;20.10;82.87;97034.00;614018;228;64601;-71
2022/10/02 19:52:34;;;;;;;;;;;;;;;20.09;83.20;97033.20;613905;231;65149;-71
2022/10/02 19:55:06;;;;;;;;;;;;;;;20.09;83.02;97032.41;613919;231;64921;-71
2022/10/02 19:57:35;;;;;;;;;;;;;;;20.09;82.99;97027.07;613191;231;65005;-71
2022/10/02 20:00:06;;;;;;;;;;;;;;;20.08;82.90;97020.94;613911;231;62768;-71
2022/10/02 20:02:38;;;;;;;;;;;;;;;20.09;82.81;97021.73;613940;229;63385;-71
2022/10/02 20:05:07;;;;;;;;;;;;;;;20.09;82.72;97024.41;613948;231;66881;-71
2022/10/02 20:07:36;;;;;;;;;;;;;;;20.08;82.98;97026.27;613899;228;62879;-71
2022/10/02 20:10:05;;;;;;;;;;;;;;;20.08;82.99;97012.94;613926;231;67010;-71
2022/10/02 20:12:34;;;;;;;;;;;;;;;20.08;82.79;97015.60;613734;228;66878;-71
2022/10/02 20:15:03;;;;;;;;;;;;;;;20.08;82.98;97020.94;613885;228;64848;-71
2022/10/02 20:17:31;;;;;;;;;;;;;;;20.08;82.74;97012.94;613993;231;66750;-71
2022/10/02 20:20:03;;;;;;;;;;;;;;;20.08;82.67;97006.77;613874;228;66936;-71
2022/10/02 20:22:33;;;;;;;;;;;;;;;20.08;82.81;97001.44;613909;231;65406;-71
2022/10/02 20:25:05;;;;;;;;;;;;;;;20.08;82.99;97007.60;613936;231;67523;-71
2022/10/02 20:27:37;;;;;;;;;;;;;;;20.08;82.75;97009.44;613902;231;66876;-71
2022/10/02 20:30:12;;;;;;;;;;;;;;;20.08;82.35;97012.11;613938;231;65168;-72
2022/10/02 20:32:42;;;;;;;;;;;;;;;20.08;82.97;97002.27;613689;231;67322;-71
2022/10/02 20:35:11;;;;;;;;;;;;;;;20.07;83.57;97005.98;613573;231;66772;-71
2022/10/02 20:37:40;;;;;;;;;;;;;;;20.08;83.27;97009.44;613875;231;65026;-71
2022/10/02 20:40:12;;;;;;;;;;;;;;;20.07;83.84;97003.31;613933;231;67112;-71
2022/10/02 20:42:48;;;;;;;;;;;;;;;20.08;83.93;97006.77;613903;230;67789;-72
2022/10/02 20:45:15;;;;;;;;;;;;;;;20.08;83.55;97014.78;613844;231;66069;-71
2022/10/02 20:48:01;;;;;;;;;;;;;;;20.07;83.57;97013.98;613935;231;67187;-71
2022/10/02 20:50:33;;;;;;;;;;;;;;;20.07;83.28;97008.64;613946;231;64858;-70
2022/10/02 20:53:11;;;;;;;;;;;;;;;20.07;83.32;97015.85;613919;231;66043;-71
2022/10/02 20:55:44;;;;;;;;;;;;;;;20.07;83.06;97015.85;613916;228;67189;-71
2022/10/02 20:58:18;;;;;;;;;;;;;;;20.07;83.27;97021.19;612419;231;67870;-72
2022/10/02 21:00:47;;;;;;;;;;;;;;;20.06;83.51;97017.73;613575;231;64851;-72
2022/10/02 21:03:22;;;;;;;;;;;;;;;20.06;83.34;97020.39;613960;231;64911;-72
2022/10/02 21:05:51;;;;;;;;;;;;;;;20.07;83.50;97007.85;613833;231;64557;-71
2022/10/02 21:08:29;;;;;;;;;;;;;;;20.06;83.26;97000.92;613932;231;64946;-70
2022/10/02 21:11:17;;;;;;;;;;;;;;;20.07;83.12;97007.85;613574;231;64925;-71
2022/10/02 21:13:48;;;;;;;;;;;;;;;20.06;83.47;96998.25;613892;231;67313;-71
2022/10/02 21:16:29;;;;;;;;;;;;;;;20.05;83.34;96994.80;613565;231;65129;-72
2022/10/02 21:19:15;;;;;;;;;;;;;;;20.05;83.63;97000.13;613136;231;64943;-71
2022/10/02 21:21:49;;;;;;;;;;;;;;;20.06;83.70;97001.72;613982;231;64926;-71
2022/10/02 21:24:30;;;;;;;;;;;;;;;20.05;84.19;97000.13;613962;231;65054;-71
2022/10/02 21:27:02;;;;;;;;;;;;;;;20.04;83.60;96995.84;613922;231;67283;-71
2022/10/02 21:29:38;;;;;;;;;;;;;;;20.05;82.56;96993.97;613943;231;66876;-71